createdAt,value
2019-02-27T20:00:24.052Z,40.80
2019-02-27T20:02:55.264Z,42.00
2019-02-27T20:05:22.735Z,42.50
2019-02-27T20:07:51.212Z,43.10
2019-02-27T20:28:31.786Z,26.50
2019-02-27T20:30:59.971Z,39.60
2019-02-27T20:33:28.402Z,45.70
2019-02-27T20:35:56.748Z,48.90
2019-02-27T20:38:25.466Z,50.50
2019-02-27T20:40:54.647Z,51.00
2019-02-27T20:43:28.997Z,52.00
2019-02-27T20:45:52.789Z,52.10
2019-02-27T20:48:20.992Z,52.20
2019-02-27T20:50:58.193Z,51.90
2019-02-27T20:53:26.390Z,51.80
2019-02-27T20:55:54.683Z,52.50
2019-02-27T20:58:22.961Z,53.00
2019-02-27T21:00:51.162Z,53.40
2019-02-27T21:03:19.367Z,53.20
2019-02-27T21:05:48.567Z,53.10
2019-02-27T21:08:16.883Z,53.30
2019-02-27T21:10:45.078Z,53.50
2019-02-27T21:13:15.962Z,53.60
2019-02-27T21:15:43.202Z,53.20
2019-02-27T21:18:11.413Z,53.30
2019-02-27T21:20:42.115Z,53.90
2019-02-27T21:23:09.563Z,53.60
2019-02-27T21:25:37.759Z,54.60
2019-02-27T21:28:07.581Z,54.10
2019-02-27T21:30:35.886Z,54.00
2019-02-27T21:33:04.083Z,53.70
2019-02-27T21:35:32.567Z,53.40
2019-02-27T21:38:00.765Z,53.60
2019-02-27T21:40:28.971Z,54.30
2019-02-27T21:42:57.479Z,54.40
2019-02-27T21:45:25.680Z,54.80
2019-02-27T21:47:53.866Z,55.20
2019-02-27T21:50:25.842Z,55.40
2019-02-27T21:52:54.702Z,55.50
2019-02-27T21:55:23.886Z,56.00
2019-02-27T21:57:52.090Z,56.00
2019-02-27T22:00:23.396Z,55.90
2019-02-27T22:02:53.366Z,55.90
2019-02-27T22:05:21.559Z,56.60
2019-02-27T22:07:49.922Z,57.20
2019-02-27T22:10:19.542Z,57.00
2019-02-27T22:12:48.045Z,56.20
2019-02-27T22:15:27.044Z,56.00
2019-02-27T22:17:55.239Z,55.80
2019-02-27T22:20:25.982Z,56.30
2019-02-27T22:22:53.594Z,56.30
2019-02-27T22:25:21.790Z,57.20
2019-02-27T22:27:49.999Z,57.60
2019-02-27T22:30:19.327Z,56.90
2019-02-27T22:32:48.705Z,56.90
2019-02-27T22:35:17.018Z,57.50
2019-02-27T22:37:45.217Z,57.40
2019-02-27T22:40:17.872Z,57.80
2019-02-27T22:42:48.656Z,57.40
2019-02-27T22:45:18.210Z,57.50
2019-02-27T22:47:46.398Z,57.80
2019-02-27T22:50:20.986Z,57.30
2019-02-27T22:52:54.208Z,58.00
2019-02-27T22:55:19.408Z,58.50
2019-02-27T22:57:47.827Z,57.80
2019-02-27T23:00:55.865Z,57.90
2019-02-27T23:03:37.578Z,57.50
2019-02-27T23:06:05.847Z,58.00
2019-02-27T23:08:34.042Z,58.20
2019-02-27T23:11:03.676Z,57.60
2019-02-27T23:13:32.104Z,57.50
2019-02-27T23:16:00.306Z,57.70
2019-02-27T23:18:28.502Z,58.20
2019-02-27T23:20:56.702Z,58.00
2019-02-27T23:23:25.061Z,58.20
2019-02-27T23:25:53.269Z,58.20
2019-02-27T23:28:21.454Z,58.30
2019-02-27T23:30:49.652Z,57.80
2019-02-27T23:33:17.843Z,57.90
2019-02-27T23:35:47.294Z,58.40
2019-02-27T23:38:15.975Z,58.10
2019-02-27T23:40:44.522Z,58.50
2019-02-27T23:43:12.712Z,58.50
2019-02-27T23:45:41.406Z,58.80
2019-02-27T23:48:10.838Z,59.20
2019-02-27T23:50:39.034Z,59.10
2019-02-27T23:53:07.270Z,59.50
2019-02-27T23:55:35.438Z,59.40
2019-02-27T23:58:03.635Z,59.30
